createdAt,value
2023-02-16T00:01:59.876Z,102201.56
2023-02-16T00:04:27.423Z,102197.31
2023-02-16T00:06:54.877Z,102199.19
2023-02-16T00:09:21.558Z,102201.13
2023-02-16T00:11:48.438Z,102191.81
2023-02-16T00:14:15.046Z,102195.56
2023-02-16T00:16:41.926Z,102190.47
2023-02-16T00:19:25.943Z,102194.22
2023-02-16T00:21:54.374Z,102189.28
2023-02-16T00:24:20.842Z,102188.72
2023-02-16T00:26:47.662Z,102177.50
2023-02-16T00:29:16.833Z,102171.56
2023-02-16T00:31:43.276Z,102182.09
2023-02-16T00:34:20.275Z,102181.25
2023-02-16T00:36:46.586Z,102186.53
2023-02-16T00:39:14.289Z,102183.97
2023-02-16T00:41:40.725Z,102180.56
2023-02-16T00:44:12.655Z,102180.56
2023-02-16T00:46:39.024Z,102184.81
2023-02-16T00:49:05.358Z,102183.91
2023-02-16T00:51:31.690Z,102186.41
2023-02-16T00:53:58.019Z,102190.84
2023-02-16T00:56:25.754Z,102192.63
2023-02-16T00:58:52.598Z,102186.59
2023-02-16T01:01:20.952Z,102185.00
2023-02-16T01:03:47.312Z,102181.66
2023-02-16T01:06:13.629Z,102186.16
2023-02-16T01:08:40.248Z,102183.72
2023-02-16T01:11:07.463Z,102184.81
2023-02-16T01:13:36.770Z,102185.69
2023-02-16T01:16:03.146Z,102185.91
2023-02-16T01:18:29.626Z,102180.84
2023-02-16T01:20:55.957Z,102178.22
2023-02-16T01:23:22.288Z,102187.97
2023-02-16T01:25:48.617Z,102184.56
2023-02-16T01:28:17.760Z,102189.75
2023-02-16T01:30:45.429Z,102189.91
2023-02-16T01:33:11.778Z,102182.22
2023-02-16T01:35:38.292Z,102177.88
2023-02-16T01:38:04.660Z,102177.97
2023-02-16T01:40:38.339Z,102173.78
2023-02-16T01:43:10.662Z,102169.66
2023-02-16T01:45:40.605Z,102167.25
2023-02-16T01:48:18.006Z,102169.03
2023-02-16T01:50:47.996Z,102161.38
2023-02-16T01:53:18.391Z,102166.00
2023-02-16T01:55:47.010Z,102159.19
2023-02-16T01:58:16.059Z,102151.22
2023-02-16T02:01:00.871Z,102147.75
2023-02-16T02:03:30.669Z,102149.59
2023-02-16T02:05:57.041Z,102145.25
2023-02-16T02:08:28.464Z,102136.59
2023-02-16T02:10:59.274Z,102123.81
2023-02-16T02:13:29.060Z,102120.47
2023-02-16T02:15:56.682Z,102119.97
2023-02-16T02:18:23.029Z,102118.44
2023-02-16T02:21:14.254Z,102123.03
2023-02-16T02:23:48.928Z,102114.38
2023-02-16T02:26:42.328Z,102107.50
2023-02-16T02:29:18.217Z,102100.53
2023-02-16T02:31:52.312Z,102101.38
2023-02-16T02:34:25.832Z,102111.13
2023-02-16T02:37:00.548Z,102110.47
2023-02-16T02:39:32.738Z,102118.25
2023-02-16T02:42:02.900Z,102115.63
2023-02-16T02:44:31.417Z,102105.22
2023-02-16T02:46:57.762Z,102108.59
2023-02-16T02:49:24.239Z,102105.09
2023-02-16T02:51:51.122Z,102111.22
2023-02-16T02:54:19.379Z,102104.34
2023-02-16T02:56:47.668Z,102108.78
2023-02-16T02:59:14.319Z,102107.06
2023-02-16T03:01:43.761Z,102100.97
2023-02-16T03:04:11.074Z,102095.69
2023-02-16T03:06:38.915Z,102088.59
2023-02-16T03:09:06.762Z,102085.03
2023-02-16T03:11:33.098Z,102078.91
2023-02-16T03:14:02.245Z,102084.19
2023-02-16T03:16:31.173Z,102071.88
2023-02-16T03:18:59.532Z,102073.56
2023-02-16T03:21:26.980Z,102073.66
2023-02-16T03:23:54.654Z,102069.25
2023-02-16T03:26:21.748Z,102079.78
2023-02-16T03:28:48.716Z,102065.66
2023-02-16T03:31:17.649Z,102059.56
2023-02-16T03:33:44.959Z,102066.72
2023-02-16T03:36:12.636Z,102063.31
2023-02-16T03:38:39.113Z,102070.41
2023-02-16T03:41:06.181Z,102070.50
2023-02-16T03:43:32.605Z,102081.94
2023-02-16T03:45:58.956Z,102072.44
2023-02-16T03:48:25.266Z,102084.06
2023-02-16T03:50:51.550Z,102073.88
2023-02-16T03:53:19.231Z,102078.38
2023-02-16T03:55:46.394Z,102076.84
2023-02-16T03:58:14.454Z,102069.03
2023-02-16T04:00:40.783Z,102070.81
2023-02-16T04:03:07.552Z,102072.66
2023-02-16T04:05:33.937Z,102078.84
2023-02-16T04:08:00.322Z,102071.88
2023-02-16T04:10:28.137Z,102070.22
2023-02-16T04:12:54.451Z,102070.38
2023-02-16T04:15:22.114Z,102063.25
2023-02-16T04:17:48.794Z,102068.53
2023-02-16T04:20:16.114Z,102066.63
2023-02-16T04:22:42.456Z,102069.97
2023-02-16T04:25:08.771Z,102075.97
2023-02-16T04:27:36.963Z,102076.75
2023-02-16T04:30:05.168Z,102076.69
2023-02-16T04:32:31.507Z,102069.53
2023-02-16T04:34:57.830Z,102081.59
2023-02-16T04:37:24.147Z,102077.09
2023-02-16T04:39:50.464Z,102091.88
2023-02-16T04:42:16.862Z,102087.38
2023-02-16T04:44:44.545Z,102081.28
2023-02-16T04:47:10.937Z,102077.69
2023-02-16T04:49:37.499Z,102082.94
2023-02-16T04:52:03.982Z,102076.03
2023-02-16T04:54:30.514Z,102071.78
2023-02-16T04:56:56.810Z,102081.44
2023-02-16T04:59:23.249Z,102069.38
2023-02-16T05:01:50.925Z,102073.00
2023-02-16T05:04:17.304Z,102087.94
2023-02-16T05:06:43.593Z,102072.09
2023-02-16T05:09:10.144Z,102068.44
2023-02-16T05:11:36.462Z,102061.34
2023-02-16T05:14:02.782Z,102053.38
2023-02-16T05:16:29.082Z,102059.47
2023-02-16T05:18:58.727Z,102063.81
2023-02-16T05:21:25.231Z,102065.50
2023-02-16T05:23:51.552Z,102063.53
2023-02-16T05:26:17.829Z,102065.16
2023-02-16T05:28:44.110Z,102065.94
2023-02-16T05:31:10.475Z,102067.38
2023-02-16T05:33:36.833Z,102058.38
2023-02-16T05:36:04.753Z,102067.91
2023-02-16T05:38:31.026Z,102062.44
2023-02-16T05:40:58.731Z,102064.91
2023-02-16T05:43:25.006Z,102067.31
2023-02-16T05:45:51.346Z,102071.44
2023-02-16T05:48:17.686Z,102064.31
2023-02-16T05:50:44.049Z,102065.00
2023-02-16T05:53:11.662Z,102060.44
2023-02-16T05:55:37.985Z,102051.41
2023-02-16T05:58:04.278Z,102052.19
2023-02-16T06:00:30.614Z,102048.53
2023-02-16T06:02:57.001Z,102042.25
2023-02-16T06:05:23.340Z,102045.63
2023-02-16T06:07:49.617Z,102058.69
2023-02-16T06:10:17.382Z,102062.94
2023-02-16T06:12:44.957Z,102059.31
2023-02-16T06:15:11.362Z,102069.56
2023-02-16T06:17:37.757Z,102059.78
2023-02-16T06:20:04.932Z,102059.63
2023-02-16T06:22:31.212Z,102062.94
2023-02-16T06:24:57.494Z,102054.00
2023-02-16T06:27:25.156Z,102053.91
2023-02-16T06:29:51.441Z,102048.47
2023-02-16T06:32:17.859Z,102054.50
2023-02-16T06:34:44.215Z,102056.94
2023-02-16T06:37:10.509Z,102054.22
2023-02-16T06:39:36.844Z,102045.22
2023-02-16T06:42:03.342Z,102046.84
2023-02-16T06:44:31.030Z,102052.88
2023-02-16T06:46:57.475Z,102043.91
2023-02-16T06:49:26.680Z,102047.41
2023-02-16T06:51:54.000Z,102046.47
2023-02-16T06:54:20.453Z,102062.94
2023-02-16T06:56:46.734Z,102062.78
2023-02-16T06:59:13.141Z,102058.22
2023-02-16T07:01:41.461Z,102058.81
2023-02-16T07:04:08.816Z,102066.56
2023-02-16T07:06:35.113Z,102076.03
2023-02-16T07:09:01.516Z,102072.28
2023-02-16T07:11:27.968Z,102068.72
2023-02-16T07:13:54.299Z,102072.97
2023-02-16T07:16:21.035Z,102078.06
2023-02-16T07:18:48.736Z,102084.91
2023-02-16T07:21:15.252Z,102090.00
2023-02-16T07:23:41.578Z,102087.19
2023-02-16T07:26:07.969Z,102097.53
2023-02-16T07:28:34.698Z,102088.59
2023-02-16T07:31:05.882Z,102101.44
2023-02-16T07:33:32.346Z,102101.13
2023-02-16T07:36:00.135Z,102106.06
2023-02-16T07:38:26.456Z,102098.78
2023-02-16T07:40:52.820Z,102088.84
2023-02-16T07:43:19.144Z,102097.03
2023-02-16T07:45:45.483Z,102100.22
2023-02-16T07:48:11.807Z,102108.78
2023-02-16T07:50:38.110Z,102097.97
2023-02-16T07:53:05.734Z,102101.28
2023-02-16T07:55:32.041Z,102097.50
2023-02-16T07:57:58.513Z,102093.66
2023-02-16T08:00:24.914Z,102094.22
2023-02-16T08:02:51.396Z,102094.78
2023-02-16T08:05:17.864Z,102095.31
2023-02-16T08:07:46.480Z,102093.91
2023-02-16T08:10:14.668Z,102088.16
2023-02-16T08:12:41.002Z,102088.69
2023-02-16T08:15:07.892Z,102086.44
2023-02-16T08:17:34.616Z,102087.72
2023-02-16T08:20:00.954Z,102085.72
2023-02-16T08:22:27.271Z,102074.94
2023-02-16T08:24:53.576Z,102079.19
2023-02-16T08:27:21.251Z,102082.59
2023-02-16T08:29:47.536Z,102083.34
2023-02-16T08:32:14.136Z,102071.00
2023-02-16T08:34:43.164Z,102090.09
2023-02-16T08:37:11.595Z,102088.00
2023-02-16T08:39:37.897Z,102093.19
2023-02-16T08:42:04.396Z,102098.28
2023-02-16T08:44:32.289Z,102097.13
2023-02-16T08:46:59.786Z,102104.75
2023-02-16T08:49:26.414Z,102101.88
2023-02-16T08:51:53.833Z,102103.47
2023-02-16T08:54:21.387Z,102102.16
2023-02-16T08:56:47.749Z,102115.97
2023-02-16T08:59:14.740Z,102109.38
2023-02-16T09:01:42.702Z,102111.59
2023-02-16T09:04:09.033Z,102121.84
2023-02-16T09:06:36.615Z,102117.19
2023-02-16T09:09:02.923Z,102123.97
2023-02-16T09:11:29.319Z,102114.25
2023-02-16T09:13:55.646Z,102121.03
2023-02-16T09:16:22.923Z,102120.81
2023-02-16T09:18:51.241Z,102121.66
2023-02-16T09:21:18.580Z,102116.47
2023-02-16T09:23:45.531Z,102122.59
2023-02-16T09:26:11.864Z,102123.34
2023-02-16T09:28:38.654Z,102121.03
2023-02-16T09:31:09.075Z,102126.22
2023-02-16T09:33:35.590Z,102125.47
2023-02-16T09:36:05.875Z,102132.59
2023-02-16T09:38:32.437Z,102142.31
2023-02-16T09:40:58.870Z,102139.34
2023-02-16T09:43:33.091Z,102146.31
2023-02-16T09:46:01.793Z,102149.81
2023-02-16T09:48:33.873Z,102157.63
2023-02-16T09:51:01.051Z,102151.41
2023-02-16T09:53:32.418Z,102151.06
2023-02-16T09:56:04.283Z,102144.53
2023-02-16T09:58:36.927Z,102146.03
2023-02-16T10:01:07.035Z,102141.47
2023-02-16T10:03:40.146Z,102138.31
2023-02-16T10:06:17.706Z,102130.28
2023-02-16T10:08:47.333Z,102132.06
2023-02-16T10:11:15.055Z,102130.03
2023-02-16T10:13:43.349Z,102117.44
2023-02-16T10:16:13.953Z,102124.09
2023-02-16T10:18:43.320Z,102126.53
2023-02-16T10:21:13.992Z,102129.94
2023-02-16T10:23:44.918Z,102125.38
2023-02-16T10:26:16.682Z,102112.38
2023-02-16T10:28:45.736Z,102108.03
2023-02-16T10:31:13.712Z,102119.44
2023-02-16T10:33:42.184Z,102119.03
2023-02-16T10:36:14.590Z,102122.66
2023-02-16T10:38:43.624Z,102120.94
2023-02-16T10:41:16.930Z,102127.38
2023-02-16T10:43:47.136Z,102127.28
2023-02-16T10:46:15.659Z,102116.72
2023-02-16T10:48:42.061Z,102114.81
2023-02-16T10:51:08.985Z,102114.69
2023-02-16T10:53:39.223Z,102127.69
2023-02-16T10:56:21.387Z,102123.16
2023-02-16T10:58:49.984Z,102119.56
2023-02-16T11:01:18.516Z,102124.75
2023-02-16T11:03:47.434Z,102124.44
2023-02-16T11:06:14.979Z,102132.03
2023-02-16T11:08:47.172Z,102138.81
2023-02-16T11:11:13.517Z,102130.66
2023-02-16T11:13:40.315Z,102133.72
2023-02-16T11:16:10.426Z,102124.38
2023-02-16T11:18:38.729Z,102130.31
2023-02-16T11:21:06.086Z,102132.84
2023-02-16T11:23:33.536Z,102124.81
2023-02-16T11:26:01.816Z,102126.81
2023-02-16T11:28:32.084Z,102129.66
2023-02-16T11:31:05.222Z,102128.59
2023-02-16T11:33:33.299Z,102128.72
2023-02-16T11:36:00.119Z,102133.50
2023-02-16T11:38:27.668Z,102132.97
2023-02-16T11:40:54.107Z,102136.56
2023-02-16T11:43:20.530Z,102129.72
2023-02-16T11:45:56.715Z,102133.72
2023-02-16T11:48:26.109Z,102133.94
2023-02-16T11:50:57.700Z,102117.44
2023-02-16T11:53:25.272Z,102121.03
2023-02-16T11:55:51.601Z,102107.72
2023-02-16T11:58:18.781Z,102103.97
2023-02-16T12:00:50.766Z,102089.50
2023-02-16T12:03:23.064Z,102089.56
2023-02-16T12:05:53.908Z,102080.97
2023-02-16T12:08:27.708Z,102073.44
2023-02-16T12:11:01.276Z,102072.47
2023-02-16T12:13:33.373Z,102071.84
2023-02-16T12:16:07.611Z,102062.31
2023-02-16T12:18:38.895Z,102059.69
2023-02-16T12:21:10.296Z,102055.34
2023-02-16T12:23:39.638Z,102050.03
2023-02-16T12:26:20.745Z,102052.38
2023-02-16T12:28:49.706Z,102040.41
2023-02-16T12:31:22.700Z,102040.94
2023-02-16T12:33:53.493Z,102048.06
2023-02-16T12:36:38.831Z,102052.69
2023-02-16T12:39:12.589Z,102044.78
2023-02-16T12:41:44.317Z,102040.97
2023-02-16T12:44:15.651Z,102023.91
2023-02-16T12:46:42.914Z,102029.63
2023-02-16T12:49:13.870Z,102027.47
2023-02-16T12:51:45.475Z,102025.44
2023-02-16T12:54:17.245Z,102026.31
2023-02-16T12:56:45.551Z,102010.84
2023-02-16T12:59:17.360Z,102005.19
2023-02-16T13:01:44.957Z,101998.31
2023-02-16T13:04:17.468Z,101995.53
2023-02-16T13:06:48.620Z,101989.28
2023-02-16T13:09:21.880Z,101994.31
2023-02-16T13:11:50.345Z,101990.22
2023-02-16T13:14:17.386Z,101991.91
2023-02-16T13:16:46.499Z,101983.31
2023-02-16T13:19:13.593Z,101987.28
2023-02-16T13:21:58.490Z,101989.66
2023-02-16T13:24:35.846Z,101981.47
2023-02-16T13:27:12.050Z,101974.69
2023-02-16T13:29:51.649Z,101969.34
2023-02-16T13:32:26.544Z,101965.47
2023-02-16T13:35:02.909Z,101962.31
2023-02-16T13:37:41.989Z,101965.44
2023-02-16T13:40:22.162Z,101961.41
2023-02-16T13:43:01.473Z,101952.22
2023-02-16T13:45:29.747Z,101942.19
2023-02-16T13:47:56.788Z,101935.91
2023-02-16T13:50:25.300Z,101937.84
2023-02-16T13:52:52.546Z,101936.88
2023-02-16T13:55:24.420Z,101921.91
2023-02-16T13:58:04.648Z,101922.88
2023-02-16T14:00:32.540Z,101911.28
2023-02-16T14:03:00.223Z,101916.47
2023-02-16T14:05:28.558Z,101912.69
2023-02-16T14:08:08.943Z,101906.41
2023-02-16T14:10:50.155Z,101907.25
2023-02-16T14:13:17.893Z,101902.53
2023-02-16T14:15:49.937Z,101904.06
2023-02-16T14:18:20.693Z,101891.50
2023-02-16T14:20:47.040Z,101893.03
2023-02-16T14:23:26.967Z,101886.50
2023-02-16T14:26:00.520Z,101883.59
2023-02-16T14:28:45.325Z,101883.28
2023-02-16T14:31:14.911Z,101888.47
2023-02-16T14:33:45.052Z,101890.88
2023-02-16T14:36:14.008Z,101884.72
2023-02-16T14:38:43.429Z,101886.41
2023-02-16T14:41:11.998Z,101880.38
2023-02-16T14:43:40.265Z,101892.69
2023-02-16T14:46:17.866Z,101881.94
2023-02-16T14:49:09.406Z,101870.59
2023-02-16T14:51:49.827Z,101876.75
2023-02-16T14:54:33.236Z,101870.59
2023-02-16T14:57:00.266Z,101866.00
2023-02-16T14:59:29.962Z,101865.44
2023-02-16T15:01:56.364Z,101861.56
2023-02-16T15:04:31.448Z,101857.78
2023-02-16T15:06:58.826Z,101860.31
2023-02-16T15:09:26.270Z,101862.28
2023-02-16T15:11:53.860Z,101858.63
2023-02-16T15:14:20.161Z,101860.84
2023-02-16T15:16:46.462Z,101858.31
2023-02-16T15:19:16.476Z,101859.03
2023-02-16T15:21:44.206Z,101860.59
2023-02-16T15:24:21.250Z,101855.00
2023-02-16T15:26:52.874Z,101860.88
2023-02-16T15:29:21.127Z,101865.69
2023-02-16T15:31:48.050Z,101865.13
2023-02-16T15:34:25.441Z,101859.69
2023-02-16T15:36:53.169Z,101860.25
2023-02-16T15:39:28.199Z,101856.03
2023-02-16T15:42:11.734Z,101851.56
2023-02-16T15:44:38.110Z,101852.66
2023-02-16T15:47:07.866Z,101856.59
2023-02-16T15:49:34.215Z,101856.72
2023-02-16T15:52:02.034Z,101855.59
2023-02-16T15:54:29.535Z,101850.13
2023-02-16T15:56:56.977Z,101843.03
2023-02-16T15:59:35.494Z,101847.38
2023-02-16T16:02:04.104Z,101851.31
2023-02-16T16:04:31.194Z,101855.47
2023-02-16T16:06:58.121Z,101850.28
2023-02-16T16:09:26.887Z,101850.72
2023-02-16T16:11:53.992Z,101846.50
2023-02-16T16:14:21.391Z,101836.00
2023-02-16T16:16:47.941Z,101845.66
2023-02-16T16:19:15.246Z,101840.47
2023-02-16T16:21:46.165Z,101844.41
2023-02-16T16:24:12.594Z,101838.50
2023-02-16T16:26:51.416Z,101840.56
2023-02-16T16:29:34.910Z,101844.75
2023-02-16T16:32:01.679Z,101845.72
2023-02-16T16:34:32.191Z,101841.66
2023-02-16T16:36:59.269Z,101844.47
2023-02-16T16:39:27.925Z,101836.63
2023-02-16T16:42:21.212Z,101835.91
2023-02-16T16:44:56.803Z,101829.06
2023-02-16T16:47:28.207Z,101836.22
2023-02-16T16:49:55.909Z,101841.53
2023-02-16T16:52:29.684Z,101841.84
2023-02-16T16:54:56.005Z,101844.94
2023-02-16T16:57:22.289Z,101848.44
2023-02-16T16:59:48.623Z,101852.38
2023-02-16T17:02:16.335Z,101849.84
2023-02-16T17:04:42.658Z,101855.97
2023-02-16T17:07:08.988Z,101858.16
2023-02-16T17:09:35.290Z,101859.13
2023-02-16T17:12:01.615Z,101865.53
2023-02-16T17:14:28.594Z,101857.25
2023-02-16T17:16:54.928Z,101857.94
2023-02-16T17:19:22.990Z,101867.00
2023-02-16T17:21:49.310Z,101863.31
2023-02-16T17:24:16.051Z,101851.13
2023-02-16T17:26:42.414Z,101856.97
2023-02-16T17:29:08.904Z,101854.47
2023-02-16T17:31:35.267Z,101862.81
2023-02-16T17:34:01.631Z,101855.09
2023-02-16T17:36:29.337Z,101863.34
2023-02-16T17:38:55.767Z,101852.56
2023-02-16T17:41:23.254Z,101865.91
2023-02-16T17:43:49.899Z,101854.84
2023-02-16T17:46:16.558Z,101859.31
2023-02-16T17:48:43.265Z,101860.78
2023-02-16T17:51:13.232Z,101855.00
2023-02-16T17:53:41.255Z,101853.56
2023-02-16T17:56:10.614Z,101865.00
2023-02-16T17:58:36.989Z,101853.31
2023-02-16T18:01:03.436Z,101844.06
2023-02-16T18:03:29.744Z,101847.31
2023-02-16T18:05:56.045Z,101851.22
2023-02-16T18:08:22.370Z,101851.09
2023-02-16T18:10:51.144Z,101848.56
2023-02-16T18:13:17.803Z,101851.22
2023-02-16T18:15:45.203Z,101857.50
2023-02-16T18:18:11.803Z,101856.06
2023-02-16T18:20:38.236Z,101844.47
2023-02-16T18:23:04.571Z,101848.94
2023-02-16T18:25:30.986Z,101840.38
2023-02-16T18:27:58.691Z,101845.22
2023-02-16T18:30:25.089Z,101839.75
2023-02-16T18:32:51.381Z,101837.59
2023-02-16T18:35:17.879Z,101837.22
2023-02-16T18:37:44.566Z,101847.00
2023-02-16T18:40:11.890Z,101839.41
2023-02-16T18:42:38.192Z,101836.31
2023-02-16T18:45:06.205Z,101837.16
2023-02-16T18:47:32.618Z,101840.78
2023-02-16T18:49:58.957Z,101840.16
2023-02-16T18:52:25.273Z,101839.31
2023-02-16T18:54:51.627Z,101840.16
2023-02-16T18:57:18.316Z,101831.84
2023-02-16T18:59:45.202Z,101828.47
2023-02-16T19:02:12.910Z,101835.59
2023-02-16T19:04:39.324Z,101824.84
2023-02-16T19:07:05.901Z,101820.94
2023-02-16T19:09:32.207Z,101816.78
2023-02-16T19:11:58.542Z,101819.19
2023-02-16T19:14:24.915Z,101822.69
2023-02-16T19:16:51.217Z,101821.22
2023-02-16T19:19:18.858Z,101829.56
2023-02-16T19:21:45.146Z,101822.13
2023-02-16T19:24:11.772Z,101824.44
2023-02-16T19:26:38.638Z,101824.84
2023-02-16T19:29:04.966Z,101822.44
2023-02-16T19:31:31.834Z,101824.50
2023-02-16T19:33:59.146Z,101829.69
2023-02-16T19:36:28.245Z,101826.19
2023-02-16T19:38:54.549Z,101828.91
2023-02-16T19:41:22.294Z,101830.88
2023-02-16T19:43:48.829Z,101837.03
2023-02-16T19:46:15.355Z,101828.91
2023-02-16T19:48:42.051Z,101821.44
2023-02-16T19:51:09.051Z,101831.44
2023-02-16T19:53:37.344Z,101826.13
2023-02-16T19:56:04.331Z,101825.28
2023-02-16T19:58:30.816Z,101832.69
2023-02-16T20:00:57.114Z,101835.09
2023-02-16T20:03:23.449Z,101831.84
2023-02-16T20:05:49.776Z,101830.59
2023-02-16T20:08:16.087Z,101838.00
2023-02-16T20:10:44.273Z,101836.06
2023-02-16T20:13:10.817Z,101837.41
2023-02-16T20:15:37.295Z,101839.09
2023-02-16T20:18:03.639Z,101821.78
2023-02-16T20:20:29.957Z,101823.59
2023-02-16T20:22:56.262Z,101827.38
2023-02-16T20:25:22.593Z,101809.78
2023-02-16T20:27:50.221Z,101811.91
2023-02-16T20:30:18.425Z,101818.56
2023-02-16T20:32:47.019Z,101808.09
2023-02-16T20:35:13.472Z,101806.41
2023-02-16T20:37:39.795Z,101800.72
2023-02-16T20:40:06.736Z,101798.19
2023-02-16T20:42:33.068Z,101800.06
2023-02-16T20:45:00.713Z,101799.88
2023-02-16T20:47:27.004Z,101799.53
2023-02-16T20:49:53.427Z,101807.25
2023-02-16T20:52:19.722Z,101806.41
2023-02-16T20:54:46.006Z,101811.47
2023-02-16T20:57:25.821Z,101808.81
2023-02-16T20:59:52.900Z,101825.56
2023-02-16T21:02:20.584Z,101817.84
2023-02-16T21:04:47.594Z,101815.31
2023-02-16T21:07:13.889Z,101813.16
2023-02-16T21:09:40.199Z,101809.53
2023-02-16T21:12:06.538Z,101804.91
2023-02-16T21:14:32.866Z,101792.03
2023-02-16T21:16:59.182Z,101799.16
2023-02-16T21:19:26.879Z,101799.16
2023-02-16T21:21:53.279Z,101792.59
2023-02-16T21:24:19.664Z,101782.00
2023-02-16T21:26:45.975Z,101776.56
2023-02-16T21:29:12.567Z,101781.75
2023-02-16T21:31:38.928Z,101774.88
2023-02-16T21:34:05.284Z,101774.03
2023-02-16T21:36:32.931Z,101774.88
2023-02-16T21:39:01.671Z,101778.50
2023-02-16T21:41:28.647Z,101778.38
2023-02-16T21:43:56.449Z,101773.13
2023-02-16T21:46:23.208Z,101783.06
2023-02-16T21:48:49.556Z,101770.63
2023-02-16T21:51:16.948Z,101780.00
2023-02-16T21:53:44.920Z,101777.34
2023-02-16T21:56:18.412Z,101780.25
2023-02-16T21:58:44.743Z,101771.91
2023-02-16T22:01:11.125Z,101781.19
2023-02-16T22:03:37.897Z,101775.03
2023-02-16T22:06:05.398Z,101775.88
2023-02-16T22:08:34.692Z,101773.66
2023-02-16T22:11:05.448Z,101770.28
2023-02-16T22:13:31.765Z,101771.00
2023-02-16T22:15:58.065Z,101766.28
2023-02-16T22:18:24.370Z,101769.06
2023-02-16T22:20:50.660Z,101773.00
2023-02-16T22:23:16.956Z,101767.84
2023-02-16T22:25:43.286Z,101764.94
2023-02-16T22:28:10.913Z,101765.66
2023-02-16T22:30:37.227Z,101755.03
2023-02-16T22:33:03.590Z,101752.25
2023-02-16T22:35:29.910Z,101747.91
2023-02-16T22:37:56.264Z,101753.81
2023-02-16T22:40:22.590Z,101750.19
2023-02-16T22:42:48.891Z,101735.22
2023-02-16T22:45:16.677Z,101750.06
2023-02-16T22:47:43.016Z,101742.38
2023-02-16T22:50:09.725Z,101743.75
2023-02-16T22:52:36.092Z,101742.78
2023-02-16T22:55:02.414Z,101747.69
2023-02-16T22:57:28.735Z,101745.31
2023-02-16T22:59:55.038Z,101750.88
2023-02-16T23:02:23.759Z,101755.78
2023-02-16T23:04:50.135Z,101756.50
2023-02-16T23:07:16.428Z,101763.06
2023-02-16T23:09:42.736Z,101752.16
2023-02-16T23:12:09.198Z,101754.69
2023-02-16T23:14:36.601Z,101752.16
2023-02-16T23:17:02.926Z,101748.97
2023-02-16T23:19:30.579Z,101745.34
2023-02-16T23:21:56.957Z,101743.53
2023-02-16T23:24:23.790Z,101748.97
2023-02-16T23:26:50.099Z,101752.75
2023-02-16T23:29:16.741Z,101762.13
2023-02-16T23:31:44.451Z,101761.56
2023-02-16T23:34:11.110Z,101782.81
2023-02-16T23:36:39.029Z,101777.63
2023-02-16T23:39:06.811Z,101774.84
2023-02-16T23:41:33.443Z,101776.78
2023-02-16T23:44:01.149Z,101773.03
2023-02-16T23:46:27.795Z,101764.91
2023-02-16T23:48:54.216Z,101765.50
2023-02-16T23:51:20.584Z,101752.88
2023-02-16T23:53:48.290Z,101758.75
2023-02-16T23:56:15.635Z,101759.34
2023-02-16T23:58:42.732Z,101763.69
